sensor_id;sensor_type;location;lat;lon;timestamp;pressure;altitude;pressure_sealevel;temperature;humidity
44481;BME280;30184;42.018;23.670;2023-02-15T00:00:30;92448.91;;;-3.49;80.41
44481;BME280;30184;42.018;23.670;2023-02-15T00:02:58;92443.59;;;-3.49;80.17
44481;BME280;30184;42.018;23.670;2023-02-15T00:05:27;92443.13;;;-3.51;80.36
44481;BME280;30184;42.018;23.670;2023-02-15T00:07:58;92446.88;;;-3.52;80.37
44481;BME280;30184;42.018;23.670;2023-02-15T00:10:27;92455.81;;;-3.56;80.14
44481;BME280;30184;42.018;23.670;2023-02-15T00:12:56;92445.53;;;-3.58;80.30
44481;BME280;30184;42.018;23.670;2023-02-15T00:15:26;92454.56;;;-3.59;80.47
44481;BME280;30184;42.018;23.670;2023-02-15T00:17:56;92456.44;;;-3.59;80.27
44481;BME280;30184;42.018;23.670;2023-02-15T00:20:26;92460.19;;;-3.60;80.65
44481;BME280;30184;42.018;23.670;2023-02-15T00:22:54;92456.38;;;-3.71;80.31
44481;BME280;30184;42.018;23.670;2023-02-15T00:25:23;92457.91;;;-3.70;80.45
44481;BME280;30184;42.018;23.670;2023-02-15T00:27:52;92416.88;;;-4.02;80.34
44481;BME280;30184;42.018;23.670;2023-02-15T00:30:21;92469.25;;;-3.61;80.28
44481;BME280;30184;42.018;23.670;2023-02-15T00:32:52;92474.44;;;-3.65;80.53
44481;BME280;30184;42.018;23.670;2023-02-15T00:35:20;92450.13;;;-3.76;80.27
44481;BME280;30184;42.018;23.670;2023-02-15T00:37:49;92460.25;;;-3.69;80.45
44481;BME280;30184;42.018;23.670;2023-02-15T00:40:19;92444.88;;;-3.84;80.52
44481;BME280;30184;42.018;23.670;2023-02-15T00:42:48;92462.78;;;-3.72;80.64
44481;BME280;30184;42.018;23.670;2023-02-15T00:45:17;92452.47;;;-3.74;80.76
44481;BME280;30184;42.018;23.670;2023-02-15T00:47:46;92452.78;;;-3.76;80.63
44481;BME280;30184;42.018;23.670;2023-02-15T00:50:16;92445.94;;;-3.77;80.54
44481;BME280;30184;42.018;23.670;2023-02-15T00:52:46;92451.84;;;-3.80;80.88
44481;BME280;30184;42.018;23.670;2023-02-15T00:55:15;92444.25;;;-3.81;80.72
44481;BME280;30184;42.018;23.670;2023-02-15T00:57:44;92454.69;;;-3.85;80.87
44481;BME280;30184;42.018;23.670;2023-02-15T01:00:13;92436.34;;;-3.98;80.97
44481;BME280;30184;42.018;23.670;2023-02-15T01:02:42;92427.19;;;-4.01;81.07
44481;BME280;30184;42.018;23.670;2023-02-15T01:05:11;92457.38;;;-3.93;81.26
44481;BME280;30184;42.018;23.670;2023-02-15T01:07:41;92459.56;;;-3.95;81.36
44481;BME280;30184;42.018;23.670;2023-02-15T01:10:10;92454.16;;;-3.99;81.57
44481;BME280;30184;42.018;23.670;2023-02-15T01:12:39;92456.81;;;-3.99;81.41
44481;BME280;30184;42.018;23.670;2023-02-15T01:15:09;92454.16;;;-3.99;81.26
44481;BME280;30184;42.018;23.670;2023-02-15T01:17:38;92445.72;;;-4.01;81.38
44481;BME280;30184;42.018;23.670;2023-02-15T01:20:07;92483.34;;;-4.16;81.39
44481;BME280;30184;42.018;23.670;2023-02-15T01:22:36;92467.72;;;-4.00;81.50
44481;BME280;30184;42.018;23.670;2023-02-15T01:25:07;92458.22;;;-4.01;81.17
44481;BME280;30184;42.018;23.670;2023-02-15T01:27:35;92412.00;;;-4.30;81.12
44481;BME280;30184;42.018;23.670;2023-02-15T01:30:06;92461.78;;;-4.06;81.61
44481;BME280;30184;42.018;23.670;2023-02-15T01:32:36;92442.81;;;-4.17;81.23
44481;BME280;30184;42.018;23.670;2023-02-15T01:35:05;92456.81;;;-4.07;81.25
44481;BME280;30184;42.018;23.670;2023-02-15T01:37:35;92455.28;;;-4.08;81.27
44481;BME280;30184;42.018;23.670;2023-02-15T01:40:11;92449.97;;;-4.08;81.55
44481;BME280;30184;42.018;23.670;2023-02-15T01:42:41;92455.28;;;-4.08;81.34
44481;BME280;30184;42.018;23.670;2023-02-15T01:45:20;92421.78;;;-4.22;81.32
44481;BME280;30184;42.018;23.670;2023-02-15T01:47:53;92460.50;;;-4.38;81.43
44481;BME280;30184;42.018;23.670;2023-02-15T01:50:27;92445.91;;;-4.15;81.35
44481;BME280;30184;42.018;23.670;2023-02-15T01:52:59;92425.06;;;-4.25;81.46
44481;BME280;30184;42.018;23.670;2023-02-15T01:55:34;92415.94;;;-4.36;81.46
44481;BME280;30184;42.018;23.670;2023-02-15T01:58:04;92395.50;;;-4.44;81.64
44481;BME280;30184;42.018;23.670;2023-02-15T02:00:36;92448.75;;;-4.20;81.48
44481;BME280;30184;42.018;23.670;2023-02-15T02:03:04;92438.03;;;-4.32;81.62
44481;BME280;30184;42.018;23.670;2023-02-15T02:05:33;92446.13;;;-4.28;81.81
44481;BME280;30184;42.018;23.670;2023-02-15T02:08:03;92433.53;;;-4.40;81.89
44481;BME280;30184;42.018;23.670;2023-02-15T02:10:34;92438.03;;;-4.32;81.84
44481;BME280;30184;42.018;23.670;2023-02-15T02:13:04;92444.72;;;-4.34;81.58
44481;BME280;30184;42.018;23.670;2023-02-15T02:15:43;92448.34;;;-4.39;81.66
44481;BME280;30184;42.018;23.670;2023-02-15T02:18:36;92448.97;;;-4.42;81.81
44481;BME280;30184;42.018;23.670;2023-02-15T02:24:41;92455.22;;;-4.46;81.97
44481;BME280;30184;42.018;23.670;2023-02-15T02:27:25;92448.69;;;-4.58;82.00
44481;BME280;30184;42.018;23.670;2023-02-15T02:33:17;92468.91;;;-4.53;81.96
44481;BME280;30184;42.018;23.670;2023-02-15T02:35:53;92471.13;;;-4.55;82.38
44481;BME280;30184;42.018;23.670;2023-02-15T02:38:28;92475.94;;;-4.57;82.20
44481;BME280;30184;42.018;23.670;2023-02-15T02:41:09;92438.47;;;-5.02;82.15
44481;BME280;30184;42.018;23.670;2023-02-15T02:43:49;92473.44;;;-4.62;82.22
44481;BME280;30184;42.018;23.670;2023-02-15T02:46:22;92468.81;;;-4.65;82.67
44481;BME280;30184;42.018;23.670;2023-02-15T02:48:56;92470.69;;;-4.74;82.75
44481;BME280;30184;42.018;23.670;2023-02-15T02:51:25;92475.50;;;-4.68;82.62
44481;BME280;30184;42.018;23.670;2023-02-15T02:53:56;92471.28;;;-4.69;82.55
44481;BME280;30184;42.018;23.670;2023-02-15T02:56:33;92472.38;;;-4.70;82.64
44481;BME280;30184;42.018;23.670;2023-02-15T02:59:09;92460.84;;;-4.91;82.85
44481;BME280;30184;42.018;23.670;2023-02-15T03:01:44;92475.97;;;-4.74;82.92
44481;BME280;30184;42.018;23.670;2023-02-15T03:04:17;92359.84;;;-5.53;82.69
44481;BME280;30184;42.018;23.670;2023-02-15T03:06:51;92497.78;;;-4.77;83.04
44481;BME280;30184;42.018;23.670;2023-02-15T03:09:25;92503.84;;;-4.77;83.08
44481;BME280;30184;42.018;23.670;2023-02-15T03:12:02;92499.63;;;-4.78;83.17
44481;BME280;30184;42.018;23.670;2023-02-15T03:14:36;92534.06;;;-4.86;83.04
44481;BME280;30184;42.018;23.670;2023-02-15T03:17:07;92508.66;;;-4.79;82.87
44481;BME280;30184;42.018;23.670;2023-02-15T03:19:40;92507.09;;;-4.80;83.12
44481;BME280;30184;42.018;23.670;2023-02-15T03:22:13;92502.44;;;-4.83;83.13
44481;BME280;30184;42.018;23.670;2023-02-15T03:24:46;92475.34;;;-5.06;83.05
44481;BME280;30184;42.018;23.670;2023-02-15T03:27:22;92518.66;;;-4.84;82.80
44481;BME280;30184;42.018;23.670;2023-02-15T03:29:56;92530.63;;;-4.87;82.96
44481;BME280;30184;42.018;23.670;2023-02-15T03:32:28;92512.88;;;-4.95;82.91
44481;BME280;30184;42.018;23.670;2023-02-15T03:34:59;92517.56;;;-4.92;82.96
44481;BME280;30184;42.018;23.670;2023-02-15T03:37:33;92454.38;;;-5.85;82.81
44481;BME280;30184;42.018;23.670;2023-02-15T03:40:07;92581.88;;;-4.92;82.81
44481;BME280;30184;42.018;23.670;2023-02-15T03:42:58;92480.16;;;-5.25;82.54
44481;BME280;30184;42.018;23.670;2023-02-15T03:45:31;92477.78;;;-5.35;82.70
44481;BME280;30184;42.018;23.670;2023-02-15T03:48:02;92524.72;;;-5.01;82.90
44481;BME280;30184;42.018;23.670;2023-02-15T03:50:35;92535.59;;;-5.03;82.62
44481;BME280;30184;42.018;23.670;2023-02-15T03:53:24;92541.19;;;-5.04;82.70
44481;BME280;30184;42.018;23.670;2023-02-15T03:55:54;92520.63;;;-5.16;82.71
44481;BME280;30184;42.018;23.670;2023-02-15T03:58:24;92535.72;;;-5.08;83.00
44481;BME280;30184;42.018;23.670;2023-02-15T04:01:13;92560.63;;;-5.09;82.76
44481;BME280;30184;42.018;23.670;2023-02-15T04:04:09;92548.34;;;-5.13;83.17
44481;BME280;30184;42.018;23.670;2023-02-15T04:06:40;92535.91;;;-5.13;83.07
44481;BME280;30184;42.018;23.670;2023-02-15T04:09:09;92536.03;;;-5.18;82.87
44481;BME280;30184;42.018;23.670;2023-02-15T04:11:55;92538.38;;;-5.16;82.85
44481;BME280;30184;42.018;23.670;2023-02-15T04:14:24;92553.00;;;-5.19;82.85
44481;BME280;30184;42.018;23.670;2023-02-15T04:17:11;92554.09;;;-5.20;82.97
44481;BME280;30184;42.018;23.670;2023-02-15T04:19:39;92543.81;;;-5.30;82.93
44481;BME280;30184;42.018;23.670;2023-02-15T04:22:27;92552.84;;;-5.22;83.10
44481;BME280;30184;42.018;23.670;2023-02-15T04:25:13;92542.09;;;-5.26;82.83
44481;BME280;30184;42.018;23.670;2023-02-15T04:27:43;92556.72;;;-5.29;83.28
44481;BME280;30184;42.018;23.670;2023-02-15T04:30:13;92524.88;;;-5.54;83.19
44481;BME280;30184;42.018;23.670;2023-02-15T04:32:42;92554.22;;;-5.34;83.14
44481;BME280;30184;42.018;23.670;2023-02-15T04:35:12;92557.94;;;-5.35;83.43
44481;BME280;30184;42.018;23.670;2023-02-15T04:37:43;92577.09;;;-5.38;83.09
44481;BME280;30184;42.018;23.670;2023-02-15T04:40:13;92566.81;;;-5.39;83.29
44481;BME280;30184;42.018;23.670;2023-02-15T04:42:47;92579.56;;;-5.41;83.21
44481;BME280;30184;42.018;23.670;2023-02-15T04:45:16;92577.22;;;-5.43;83.28
44481;BME280;30184;42.018;23.670;2023-02-15T04:47:45;92581.22;;;-5.45;83.20
44481;BME280;30184;42.018;23.670;2023-02-15T04:50:14;92591.38;;;-5.47;83.41
44481;BME280;30184;42.018;23.670;2023-02-15T04:52:45;92499.69;;;-6.39;83.35
44481;BME280;30184;42.018;23.670;2023-02-15T04:55:14;92597.25;;;-5.50;83.13
44481;BME280;30184;42.018;23.670;2023-02-15T04:57:42;92587.28;;;-5.53;83.50
44481;BME280;30184;42.018;23.670;2023-02-15T05:00:12;92527.41;;;-5.97;83.43
44481;BME280;30184;42.018;23.670;2023-02-15T05:02:41;92597.84;;;-5.53;83.34
44481;BME280;30184;42.018;23.670;2023-02-15T05:05:10;92588.75;;;-5.70;83.80
44481;BME280;30184;42.018;23.670;2023-02-15T05:07:40;92582.56;;;-5.65;83.42
44481;BME280;30184;42.018;23.670;2023-02-15T05:10:10;92603.78;;;-5.56;83.76
44481;BME280;30184;42.018;23.670;2023-02-15T05:12:39;92588.97;;;-5.57;83.59
44481;BME280;30184;42.018;23.670;2023-02-15T05:15:09;92609.66;;;-5.59;83.72
44481;BME280;30184;42.018;23.670;2023-02-15T05:17:38;92595.94;;;-5.61;84.01
44481;BME280;30184;42.018;23.670;2023-02-15T05:20:07;92602.31;;;-5.63;84.03
44481;BME280;30184;42.018;23.670;2023-02-15T05:22:36;92598.91;;;-5.63;83.72
44481;BME280;30184;42.018;23.670;2023-02-15T05:25:05;92607.13;;;-5.65;84.01
44481;BME280;30184;42.018;23.670;2023-02-15T05:27:53;92606.81;;;-5.63;83.98
44481;BME280;30184;42.018;23.670;2023-02-15T05:30:40;92608.94;;;-5.74;84.14
44481;BME280;30184;42.018;23.670;2023-02-15T05:33:10;92617.72;;;-5.65;83.99
44481;BME280;30184;42.018;23.670;2023-02-15T05:35:40;92624.25;;;-5.62;83.84
44481;BME280;30184;42.018;23.670;2023-02-15T05:38:09;92628.47;;;-5.61;84.05
44481;BME280;30184;42.018;23.670;2023-02-15T05:40:37;92623.19;;;-5.61;83.92
44481;BME280;30184;42.018;23.670;2023-02-15T05:43:08;92631.59;;;-5.59;83.76
44481;BME280;30184;42.018;23.670;2023-02-15T05:45:37;92635.03;;;-5.58;84.03
44481;BME280;30184;42.018;23.670;2023-02-15T05:48:06;92635.50;;;-5.56;83.95
44481;BME280;30184;42.018;23.670;2023-02-15T05:50:34;92638.59;;;-5.54;83.89
44481;BME280;30184;42.018;23.670;2023-02-15T05:53:03;92611.47;;;-5.69;83.91
44481;BME280;30184;42.018;23.670;2023-02-15T05:55:32;92633.50;;;-5.51;84.14
44481;BME280;30184;42.018;23.670;2023-02-15T05:58:01;92622.88;;;-5.59;84.17
44481;BME280;30184;42.018;23.670;2023-02-15T06:00:31;92639.75;;;-5.47;84.03
44481;BME280;30184;42.018;23.670;2023-02-15T06:03:01;92621.16;;;-5.55;83.92
44481;BME280;30184;42.018;23.670;2023-02-15T06:05:30;92639.59;;;-5.42;84.04
44481;BME280;30184;42.018;23.670;2023-02-15T06:07:59;92648.03;;;-5.40;84.00
44481;BME280;30184;42.018;23.670;2023-02-15T06:10:28;92636.59;;;-5.57;83.97
44481;BME280;30184;42.018;23.670;2023-02-15T06:12:57;92641.81;;;-5.35;83.94
44481;BME280;30184;42.018;23.670;2023-02-15T06:15:26;92643.84;;;-5.32;83.90
44481;BME280;30184;42.018;23.670;2023-02-15T06:17:56;92599.31;;;-5.78;83.78
44481;BME280;30184;42.018;23.670;2023-02-15T06:20:25;92569.94;;;-5.77;83.95
44481;BME280;30184;42.018;23.670;2023-02-15T06:22:54;92629.19;;;-5.38;83.79
44481;BME280;30184;42.018;23.670;2023-02-15T06:25:23;92635.75;;;-5.27;83.66
44481;BME280;30184;42.018;23.670;2023-02-15T06:27:52;92641.22;;;-5.23;83.90
44481;BME280;30184;42.018;23.670;2023-02-15T06:30:21;92632.50;;;-5.24;83.77
44481;BME280;30184;42.018;23.670;2023-02-15T06:32:49;92635.78;;;-5.18;83.88
44481;BME280;30184;42.018;23.670;2023-02-15T06:35:20;92633.03;;;-5.13;83.82
44481;BME280;30184;42.018;23.670;2023-02-15T06:37:49;92630.41;;;-5.05;83.85
44481;BME280;30184;42.018;23.670;2023-02-15T06:40:18;92613.91;;;-5.02;83.73
44481;BME280;30184;42.018;23.670;2023-02-15T06:42:47;92510.41;;;-5.66;83.64
44481;BME280;30184;42.018;23.670;2023-02-15T06:45:16;92626.75;;;-4.52;83.86
44481;BME280;30184;42.018;23.670;2023-02-15T06:47:45;92631.63;;;-4.28;83.40
44481;BME280;30184;42.018;23.670;2023-02-15T06:50:14;92637.22;;;-4.04;83.32
44481;BME280;30184;42.018;23.670;2023-02-15T06:52:45;92627.38;;;-3.86;82.75
44481;BME280;30184;42.018;23.670;2023-02-15T06:55:14;92628.28;;;-3.65;82.09
44481;BME280;30184;42.018;23.670;2023-02-15T06:57:43;92627.59;;;-3.45;81.70
44481;BME280;30184;42.018;23.670;2023-02-15T07:00:13;92628.03;;;-3.25;81.07
44481;BME280;30184;42.018;23.670;2023-02-15T07:02:42;92615.56;;;-3.04;80.54
44481;BME280;30184;42.018;23.670;2023-02-15T07:05:11;92624.38;;;-2.83;80.12
44481;BME280;30184;42.018;23.670;2023-02-15T07:07:40;92610.16;;;-2.78;79.08
44481;BME280;30184;42.018;23.670;2023-02-15T07:10:10;92621.09;;;-2.50;77.81
44481;BME280;30184;42.018;23.670;2023-02-15T07:12:39;92625.81;;;-2.35;77.40
44481;BME280;30184;42.018;23.670;2023-02-15T07:15:12;92641.63;;;-2.39;76.91
44481;BME280;30184;42.018;23.670;2023-02-15T07:17:42;92620.44;;;-2.06;75.79
44481;BME280;30184;42.018;23.670;2023-02-15T07:20:13;92616.00;;;-1.81;76.11
44481;BME280;30184;42.018;23.670;2023-02-15T07:22:42;92647.13;;;-1.61;75.59
44481;BME280;30184;42.018;23.670;2023-02-15T07:25:13;92569.56;;;-1.71;74.43
44481;BME280;30184;42.018;23.670;2023-02-15T07:27:42;92523.91;;;-2.06;73.39
44481;BME280;30184;42.018;23.670;2023-02-15T07:30:13;92611.41;;;-1.15;72.16
44481;BME280;30184;42.018;23.670;2023-02-15T07:32:43;92606.31;;;-0.95;72.29
44481;BME280;30184;42.018;23.670;2023-02-15T07:35:32;92591.19;;;-0.91;71.95
44481;BME280;30184;42.018;23.670;2023-02-15T07:38:02;92602.75;;;-0.63;71.21
44481;BME280;30184;42.018;23.670;2023-02-15T07:40:32;92587.84;;;-0.52;71.27
44481;BME280;30184;42.018;23.670;2023-02-15T07:43:02;92596.03;;;-0.32;70.65
44481;BME280;30184;42.018;23.670;2023-02-15T07:45:31;92564.50;;;-0.30;70.55
44481;BME280;30184;42.018;23.670;2023-02-15T07:48:00;92594.38;;;0.15;70.00
44481;BME280;30184;42.018;23.670;2023-02-15T07:50:29;92592.50;;;0.31;69.13
44481;BME280;30184;42.018;23.670;2023-02-15T07:53:00;92583.75;;;0.47;68.18
44481;BME280;30184;42.018;23.670;2023-02-15T07:55:30;92573.94;;;0.51;67.40
44481;BME280;30184;42.018;23.670;2023-02-15T07:58:00;92576.84;;;0.73;66.19
44481;BME280;30184;42.018;23.670;2023-02-15T08:00:30;92580.97;;;1.02;66.45
44481;BME280;30184;42.018;23.670;2023-02-15T08:03:18;92581.47;;;1.24;65.58
44481;BME280;30184;42.018;23.670;2023-02-15T08:05:47;92590.03;;;1.29;63.84
44481;BME280;30184;42.018;23.670;2023-02-15T08:08:16;92566.53;;;1.54;63.75
44481;BME280;30184;42.018;23.670;2023-02-15T08:10:59;92405.53;;;0.59;64.31
44481;BME280;30184;42.018;23.670;2023-02-15T08:13:48;92571.59;;;1.94;62.62
44481;BME280;30184;42.018;23.670;2023-02-15T08:16:25;92568.91;;;2.13;62.29
44481;BME280;30184;42.018;23.670;2023-02-15T08:18:58;92558.00;;;2.22;60.66
44481;BME280;30184;42.018;23.670;2023-02-15T08:21:28;92565.75;;;2.46;60.80
44481;BME280;30184;42.018;23.670;2023-02-15T08:23:58;92518.44;;;2.35;60.65
44481;BME280;30184;42.018;23.670;2023-02-15T08:26:28;92562.22;;;2.84;60.28
44481;BME280;30184;42.018;23.670;2023-02-15T08:28:59;92494.41;;;2.61;59.17
44481;BME280;30184;42.018;23.670;2023-02-15T08:31:29;92448.16;;;2.18;58.54
44481;BME280;30184;42.018;23.670;2023-02-15T08:33:58;92557.38;;;3.16;58.05
44481;BME280;30184;42.018;23.670;2023-02-15T08:36:28;92519.78;;;2.90;57.09
44481;BME280;30184;42.018;23.670;2023-02-15T08:39:00;92549.72;;;3.15;56.29
44481;BME280;30184;42.018;23.670;2023-02-15T08:41:31;92544.50;;;3.25;56.30
44481;BME280;30184;42.018;23.670;2023-02-15T08:44:04;92541.25;;;3.39;55.47
44481;BME280;30184;42.018;23.670;2023-02-15T08:46:36;92557.28;;;3.58;55.04
44481;BME280;30184;42.018;23.670;2023-02-15T08:49:05;92548.91;;;3.63;54.13
44481;BME280;30184;42.018;23.670;2023-02-15T08:51:36;92514.25;;;3.51;53.85
44481;BME280;30184;42.018;23.670;2023-02-15T08:54:08;92538.91;;;3.90;53.02
44481;BME280;30184;42.018;23.670;2023-02-15T08:56:39;92538.28;;;4.00;52.26
44481;BME280;30184;42.018;23.670;2023-02-15T08:59:13;92536.44;;;4.08;51.62
44481;BME280;30184;42.018;23.670;2023-02-15T09:01:44;92525.75;;;4.11;51.63
44481;BME280;30184;42.018;23.670;2023-02-15T09:04:13;92519.66;;;4.15;51.67
44481;BME280;30184;42.018;23.670;2023-02-15T09:06:44;92537.25;;;4.42;50.87
44481;BME280;30184;42.018;23.670;2023-02-15T09:09:15;92536.22;;;4.54;50.72
44481;BME280;30184;42.018;23.670;2023-02-15T09:11:46;92516.31;;;4.58;50.11
44481;BME280;30184;42.018;23.670;2023-02-15T09:14:19;92521.44;;;4.74;49.91
44481;BME280;30184;42.018;23.670;2023-02-15T09:16:49;92523.75;;;4.75;50.61
44481;BME280;30184;42.018;23.670;2023-02-15T09:19:20;92523.88;;;4.86;49.75
44481;BME280;30184;42.018;23.670;2023-02-15T09:21:50;92524.84;;;5.08;49.24
44481;BME280;30184;42.018;23.670;2023-02-15T09:24:19;92516.88;;;5.22;48.59
44481;BME280;30184;42.018;23.670;2023-02-15T09:26:48;92494.94;;;5.16;48.46
44481;BME280;30184;42.018;23.670;2023-02-15T09:29:19;92522.06;;;5.45;48.35
44481;BME280;30184;42.018;23.670;2023-02-15T09:31:49;92518.66;;;5.51;48.39
44481;BME280;30184;42.018;23.670;2023-02-15T09:34:20;92512.56;;;5.61;48.27
44481;BME280;30184;42.018;23.670;2023-02-15T09:36:49;92506.47;;;5.72;47.74
44481;BME280;30184;42.018;23.670;2023-02-15T09:39:20;92461.97;;;5.30;46.72
44481;BME280;30184;42.018;23.670;2023-02-15T09:45:20;92498.25;;;6.16;45.95
44481;BME280;30184;42.018;23.670;2023-02-15T09:48:10;92475.56;;;6.20;45.62
44481;BME280;30184;42.018;23.670;2023-02-15T09:50:53;92474.81;;;6.27;45.71
44481;BME280;30184;42.018;23.670;2023-02-15T09:53:35;92469.88;;;6.50;45.80
44481;BME280;30184;42.018;23.670;2023-02-15T09:56:14;92466.09;;;6.76;44.97
44481;BME280;30184;42.018;23.670;2023-02-15T09:58:52;92470.34;;;6.91;44.48
44481;BME280;30184;42.018;23.670;2023-02-15T10:01:32;92473.78;;;6.95;44.50
44481;BME280;30184;42.018;23.670;2023-02-15T10:04:34;92464.56;;;7.03;42.62
44481;BME280;30184;42.018;23.670;2023-02-15T10:07:17;92440.66;;;7.09;42.53
44481;BME280;30184;42.018;23.670;2023-02-15T10:10:02;92454.94;;;7.31;42.95
44481;BME280;30184;42.018;23.670;2023-02-15T10:12:48;92451.44;;;7.27;41.62
44481;BME280;30184;42.018;23.670;2023-02-15T10:15:34;92446.03;;;7.34;41.85
44481;BME280;30184;42.018;23.670;2023-02-15T10:18:17;92444.50;;;7.40;41.77
44481;BME280;30184;42.018;23.670;2023-02-15T10:20:55;92396.72;;;7.23;42.21
44481;BME280;30184;42.018;23.670;2023-02-15T10:26:29;92431.34;;;7.60;41.73
44481;BME280;30184;42.018;23.670;2023-02-15T10:29:03;92429.03;;;7.65;41.48
44481;BME280;30184;42.018;23.670;2023-02-15T10:31:41;92412.88;;;7.40;41.22
44481;BME280;30184;42.018;23.670;2023-02-15T10:34:17;92427.47;;;7.64;40.46
44481;BME280;30184;42.018;23.670;2023-02-15T10:36:57;92434.00;;;7.70;41.23
44481;BME280;30184;42.018;23.670;2023-02-15T10:39:41;92248.00;;;6.43;41.48
44481;BME280;30184;42.018;23.670;2023-02-15T10:42:20;92435.16;;;7.83;41.17
44481;BME280;30184;42.018;23.670;2023-02-15T10:45:09;92423.16;;;7.88;41.30
44481;BME280;30184;42.018;23.670;2023-02-15T10:47:55;92416.59;;;7.89;41.56
44481;BME280;30184;42.018;23.670;2023-02-15T10:50:45;92312.25;;;7.04;41.19
44481;BME280;30184;42.018;23.670;2023-02-15T10:53:27;92337.91;;;7.73;41.07
44481;BME280;30184;42.018;23.670;2023-02-15T10:56:06;92396.72;;;8.28;39.87
44481;BME280;30184;42.018;23.670;2023-02-15T10:58:53;92395.94;;;8.34;39.71
44481;BME280;30184;42.018;23.670;2023-02-15T11:01:28;92396.34;;;8.29;40.13
44481;BME280;30184;42.018;23.670;2023-02-15T11:04:27;92392.47;;;8.27;40.10
44481;BME280;30184;42.018;23.670;2023-02-15T11:07:03;92225.16;;;7.00;39.87
44481;BME280;30184;42.018;23.670;2023-02-15T11:09:40;92356.59;;;8.19;40.16
44481;BME280;30184;42.018;23.670;2023-02-15T11:12:12;92391.97;;;8.53;40.44
44481;BME280;30184;42.018;23.670;2023-02-15T11:14:46;92393.50;;;8.61;40.14
44481;BME280;30184;42.018;23.670;2023-02-15T11:17:22;92367.63;;;8.53;38.93
44481;BME280;30184;42.018;23.670;2023-02-15T11:20:00;92210.28;;;7.51;38.62
44481;BME280;30184;42.018;23.670;2023-02-15T11:22:34;92349.81;;;8.59;38.38
44481;BME280;30184;42.018;23.670;2023-02-15T11:25:14;92370.56;;;8.80;37.42
44481;BME280;30184;42.018;23.670;2023-02-15T11:27:47;92371.28;;;8.84;37.53
44481;BME280;30184;42.018;23.670;2023-02-15T11:30:20;92348.22;;;8.69;36.86
44481;BME280;30184;42.018;23.670;2023-02-15T11:32:52;92373.88;;;8.98;37.44
44481;BME280;30184;42.018;23.670;2023-02-15T11:35:27;92369.19;;;9.06;36.88
44481;BME280;30184;42.018;23.670;2023-02-15T11:38:03;92355.19;;;9.11;36.00
44481;BME280;30184;42.018;23.670;2023-02-15T11:40:36;92353.63;;;9.13;36.06
44481;BME280;30184;42.018;23.670;2023-02-15T11:43:15;92349.38;;;9.12;35.98
44481;BME280;30184;42.018;23.670;2023-02-15T11:45:45;92297.25;;;8.60;35.94
44481;BME280;30184;42.018;23.670;2023-02-15T11:48:15;92343.38;;;9.35;35.66
44481;BME280;30184;42.018;23.670;2023-02-15T11:50:45;92316.72;;;9.30;36.28
44481;BME280;30184;42.018;23.670;2023-02-15T11:53:17;92342.81;;;9.51;35.85
44481;BME280;30184;42.018;23.670;2023-02-15T11:55:49;92333.13;;;9.53;36.52
44481;BME280;30184;42.018;23.670;2023-02-15T11:58:25;92333.84;;;9.57;36.12
44481;BME280;30184;42.018;23.670;2023-02-15T12:01:01;92323.56;;;9.42;35.90
44481;BME280;30184;42.018;23.670;2023-02-15T12:03:42;92263.06;;;8.80;36.28
44481;BME280;30184;42.018;23.670;2023-02-15T12:06:18;92267.72;;;9.17;36.33
44481;BME280;30184;42.018;23.670;2023-02-15T12:08:56;92326.88;;;9.56;36.50
44481;BME280;30184;42.018;23.670;2023-02-15T12:11:33;92327.66;;;9.57;36.57
44481;BME280;30184;42.018;23.670;2023-02-15T12:14:05;92322.56;;;9.62;36.35
44481;BME280;30184;42.018;23.670;2023-02-15T12:16:41;92324.72;;;9.44;36.65
44481;BME280;30184;42.018;23.670;2023-02-15T12:19:13;92312.22;;;9.84;36.92
44481;BME280;30184;42.018;23.670;2023-02-15T12:21:49;92317.97;;;9.90;37.10
44481;BME280;30184;42.018;23.670;2023-02-15T12:24:25;92310.13;;;9.99;36.05
44481;BME280;30184;42.018;23.670;2023-02-15T12:27:01;92297.50;;;9.85;35.65
44481;BME280;30184;42.018;23.670;2023-02-15T12:29:35;92226.81;;;9.42;36.30
44481;BME280;30184;42.018;23.670;2023-02-15T12:32:10;92211.81;;;9.34;35.80
44481;BME280;30184;42.018;23.670;2023-02-15T12:34:40;92309.72;;;10.00;35.68
44481;BME280;30184;42.018;23.670;2023-02-15T12:37:16;92175.34;;;9.12;35.41
44481;BME280;30184;42.018;23.670;2023-02-15T12:39:53;92311.94;;;10.09;35.40
44481;BME280;30184;42.018;23.670;2023-02-15T12:42:24;92306.84;;;10.11;35.79
44481;BME280;30184;42.018;23.670;2023-02-15T12:44:56;92339.03;;;10.09;35.61
44481;BME280;30184;42.018;23.670;2023-02-15T12:47:26;92220.34;;;9.32;35.15
44481;BME280;30184;42.018;23.670;2023-02-15T12:50:11;92172.25;;;9.10;35.53
44481;BME280;30184;42.018;23.670;2023-02-15T12:52:47;92299.84;;;10.14;35.41
44481;BME280;30184;42.018;23.670;2023-02-15T12:55:24;92301.66;;;9.93;35.47
44481;BME280;30184;42.018;23.670;2023-02-15T12:58:08;92302.84;;;10.23;35.59
44481;BME280;30184;42.018;23.670;2023-02-15T13:00:37;92299.75;;;10.21;35.32
44481;BME280;30184;42.018;23.670;2023-02-15T13:03:16;92295.97;;;10.15;35.24
44481;BME280;30184;42.018;23.670;2023-02-15T13:05:47;92292.84;;;10.16;35.11
44481;BME280;30184;42.018;23.670;2023-02-15T13:08:20;92297.94;;;10.10;35.19
44481;BME280;30184;42.018;23.670;2023-02-15T13:10:56;92292.94;;;10.09;34.99
44481;BME280;30184;42.018;23.670;2023-02-15T13:13:28;92302.97;;;10.12;35.31
44481;BME280;30184;42.018;23.670;2023-02-15T13:15:58;92295.97;;;10.15;35.13
44481;BME280;30184;42.018;23.670;2023-02-15T13:18:33;92298.66;;;10.18;35.43
44481;BME280;30184;42.018;23.670;2023-02-15T13:21:09;92292.41;;;10.21;35.36
44481;BME280;30184;42.018;23.670;2023-02-15T13:23:40;92300.00;;;9.72;35.20
44481;BME280;30184;42.018;23.670;2023-02-15T13:26:16;92299.84;;;10.14;35.24
44481;BME280;30184;42.018;23.670;2023-02-15T13:28:49;92299.84;;;10.14;35.58
44481;BME280;30184;42.018;23.670;2023-02-15T13:31:22;92297.63;;;10.05;35.77
44481;BME280;30184;42.018;23.670;2023-02-15T13:33:55;92281.06;;;9.99;35.60
44481;BME280;30184;42.018;23.670;2023-02-15T13:36:30;92299.06;;;10.13;35.78